createdAt,value
2017-02-13T00:00:38.562Z,-2.76
2017-02-13T00:01:48.857Z,-2.68
2017-02-13T00:02:58.307Z,-2.58
2017-02-13T00:04:08.174Z,-2.71
2017-02-13T00:05:18.040Z,-2.79
2017-02-13T00:06:28.549Z,-2.68
2017-02-13T00:07:38.856Z,-2.7
2017-02-13T00:08:49.386Z,-2.6
2017-02-13T00:09:59.667Z,-2.55
2017-02-13T00:11:09.977Z,-2.61
2017-02-13T00:12:20.566Z,-2.58
2017-02-13T00:13:30.982Z,-2.58
2017-02-13T00:14:40.541Z,-2.61
2017-02-13T00:15:50.850Z,-2.68
2017-02-13T00:17:00.874Z,-2.77
2017-02-13T00:18:11.467Z,-2.8
2017-02-13T00:19:21.333Z,-2.68
2017-02-13T00:20:30.770Z,-2.79
2017-02-13T00:21:41.158Z,-2.79
2017-02-13T00:22:50.719Z,-2.84
2017-02-13T00:24:00.410Z,-2.79
2017-02-13T00:25:10.664Z,-2.81
2017-02-13T00:26:20.563Z,-2.74
2017-02-13T00:27:30.483Z,-2.73
2017-02-13T00:28:40.782Z,-2.68
2017-02-13T00:29:51.334Z,-2.81
2017-02-13T00:31:01.661Z,-2.81
2017-02-13T00:32:11.216Z,-2.79
2017-02-13T00:33:21.516Z,-2.84
2017-02-13T00:34:31.811Z,-2.89
2017-02-13T00:35:41.939Z,-2.91
2017-02-13T00:36:51.478Z,-2.97
2017-02-13T00:38:01.323Z,-3.01
2017-02-13T00:39:10.885Z,-2.94
2017-02-13T00:40:21.187Z,-2.91
2017-02-13T00:41:31.818Z,-2.94
2017-02-13T00:42:41.795Z,-2.95
2017-02-13T00:43:51.257Z,-2.95
2017-02-13T00:45:00.711Z,-2.98
2017-02-13T00:46:10.977Z,-3.09
2017-02-13T00:47:21.098Z,-3.05
2017-02-13T00:48:31.031Z,-2.98
2017-02-13T00:49:40.921Z,-2.94
2017-02-13T00:50:51.292Z,-2.94
2017-02-13T00:52:01.214Z,-2.98
2017-02-13T00:53:11.863Z,-2.94
2017-02-13T00:54:21.758Z,-2.89
2017-02-13T00:55:31.652Z,-2.91
2017-02-13T00:56:41.277Z,-2.92
2017-02-13T00:57:50.724Z,-2.91
2017-02-13T00:59:01.259Z,-2.76
2017-02-13T01:00:11.552Z,-2.84
2017-02-13T01:01:21.428Z,-2.81
2017-02-13T01:02:31.343Z,-2.88
2017-02-13T01:03:41.690Z,-2.84
2017-02-13T01:04:52.196Z,-2.88
2017-02-13T01:06:02.068Z,-2.83
2017-02-13T01:07:12.008Z,-2.91
2017-02-13T01:08:21.880Z,-2.91
2017-02-13T01:09:31.424Z,-2.81
2017-02-13T01:10:41.177Z,-2.71
2017-02-13T01:11:51.185Z,-2.77
2017-02-13T01:13:00.249Z,-2.83
2017-02-13T01:14:10.096Z,-2.76
2017-02-13T01:15:20.358Z,-2.76
2017-02-13T01:16:30.084Z,-2.79
2017-02-13T01:17:40.432Z,-2.79
2017-02-13T01:18:50.697Z,-2.88
2017-02-13T01:20:00.541Z,-2.81
2017-02-13T01:21:10.034Z,-2.84
2017-02-13T01:22:20.714Z,-2.89
2017-02-13T01:23:30.228Z,-2.97
2017-02-13T01:24:40.504Z,-2.91
2017-02-13T01:25:49.960Z,-2.94
2017-02-13T01:26:59.798Z,-2.86
2017-02-13T01:28:10.288Z,-2.94
2017-02-13T01:29:20.133Z,-2.97
2017-02-13T01:30:30.415Z,-2.99
2017-02-13T01:31:40.683Z,-3.04
2017-02-13T01:32:50.959Z,-3.01
2017-02-13T01:34:01.500Z,-3.09
2017-02-13T01:35:10.527Z,-3.01
2017-02-13T01:36:20.803Z,-2.99
2017-02-13T01:37:30.640Z,-3.08
2017-02-13T01:38:40.485Z,-3.02
2017-02-13T01:39:50.643Z,-3.08
2017-02-13T01:41:00.918Z,-2.99
2017-02-13T01:42:11.229Z,-3.01
2017-02-13T01:43:21.231Z,-3.01
2017-02-13T01:44:31.504Z,-2.98
2017-02-13T01:45:41.608Z,-3.05
2017-02-13T01:46:51.996Z,-2.97
2017-02-13T01:48:01.855Z,-3.04
2017-02-13T01:49:12.134Z,-3.09
2017-02-13T01:50:21.991Z,-3.19
2017-02-13T01:51:32.510Z,-3.19
2017-02-13T01:52:42.375Z,-3.22
2017-02-13T01:53:52.680Z,-3.2
2017-02-13T01:55:02.285Z,-3.22
2017-02-13T01:56:12.655Z,-3.23
2017-02-13T01:57:22.884Z,-3.3
2017-02-13T01:58:33.144Z,-3.19
2017-02-13T01:59:43.418Z,-3.28
2017-02-13T02:00:53.713Z,-3.22
2017-02-13T02:02:04.052Z,-3.1
2017-02-13T02:03:14.557Z,-3.23
2017-02-13T02:04:24.836Z,-3.2
2017-02-13T02:05:35.121Z,-3.17
2017-02-13T02:06:45.003Z,-3.16
2017-02-13T02:07:54.857Z,-3.22
2017-02-13T02:09:04.977Z,-3.2
2017-02-13T02:10:14.877Z,-3.22
2017-02-13T02:11:25.128Z,-3.17
2017-02-13T02:12:35.380Z,-3.15
2017-02-13T02:13:45.273Z,-3.16
2017-02-13T02:14:55.404Z,-3.17
2017-02-13T02:16:05.665Z,-3.22
2017-02-13T02:17:16.051Z,-3.13
2017-02-13T02:18:25.490Z,-3.19
2017-02-13T02:19:35.792Z,-3.22
2017-02-13T02:20:45.546Z,-3.26
2017-02-13T02:21:55.797Z,-3.26
2017-02-13T02:23:06.082Z,-3.22
2017-02-13T02:24:16.077Z,-3.23
2017-02-13T02:25:25.929Z,-3.27
2017-02-13T02:26:36.435Z,-3.28
2017-02-13T02:27:46.739Z,-3.22
2017-02-13T02:28:56.812Z,-3.22
2017-02-13T02:30:07.175Z,-3.15
2017-02-13T02:31:17.415Z,-3.15
2017-02-13T02:32:27.919Z,-3.13
2017-02-13T02:33:38.165Z,-3.16
2017-02-13T02:34:48.453Z,-3.19
2017-02-13T02:35:58.328Z,-3.15
2017-02-13T02:37:08.570Z,-3.05
2017-02-13T02:38:18.677Z,-3.13
2017-02-13T02:39:28.986Z,-3.1
2017-02-13T02:40:39.452Z,-3.15
2017-02-13T02:41:48.893Z,-3.1
2017-02-13T02:42:58.757Z,-3.13
2017-02-13T02:44:09.368Z,-3.1
2017-02-13T02:45:19.262Z,-3.19
2017-02-13T02:46:29.149Z,-3.09
2017-02-13T02:47:39.515Z,-3.16
2017-02-13T02:48:48.955Z,-3.08
2017-02-13T02:49:59.069Z,-3.08
2017-02-13T02:51:08.971Z,-3.08
2017-02-13T02:52:19.232Z,-3.16
2017-02-13T02:53:28.923Z,-3.12
2017-02-13T02:54:39.226Z,-3.12
2017-02-13T02:55:49.336Z,-3.1
2017-02-13T02:56:59.582Z,-3.12
2017-02-13T02:58:09.560Z,-3.16
2017-02-13T02:59:19.010Z,-3.31
2017-02-13T03:00:29.282Z,-3.26
2017-02-13T03:01:38.971Z,-3.33
2017-02-13T03:02:48.453Z,-3.35
2017-02-13T03:03:57.955Z,-3.46
2017-02-13T03:05:07.839Z,-3.46
2017-02-13T03:06:18.090Z,-3.43
2017-02-13T03:07:28.602Z,-3.49
2017-02-13T03:08:38.433Z,-3.35
2017-02-13T03:09:48.307Z,-3.3
2017-02-13T03:10:58.417Z,-3.35
2017-02-13T03:12:08.687Z,-3.37
2017-02-13T03:13:18.003Z,-3.33
2017-02-13T03:14:27.480Z,-3.41
2017-02-13T03:15:37.456Z,-3.37
2017-02-13T03:16:47.803Z,-3.35
2017-02-13T03:17:57.683Z,-3.34
2017-02-13T03:19:07.857Z,-3.33
2017-02-13T03:20:18.129Z,-3.37
2017-02-13T03:21:27.641Z,-3.37
2017-02-13T03:22:37.507Z,-3.31
2017-02-13T03:23:47.384Z,-3.26
2017-02-13T03:24:57.881Z,-3.26
2017-02-13T03:26:07.359Z,-3.2
2017-02-13T03:27:17.622Z,-3.19
2017-02-13T03:28:27.880Z,-3.17
2017-02-13T03:29:37.744Z,-3.16
2017-02-13T03:30:48.303Z,-3.26
2017-02-13T03:31:58.165Z,-3.26
2017-02-13T03:33:08.433Z,-3.26
2017-02-13T03:34:18.295Z,-3.2
2017-02-13T03:35:28.165Z,-3.27
2017-02-13T03:36:38.695Z,-3.35
2017-02-13T03:37:49.012Z,-3.35
2017-02-13T03:38:58.861Z,-3.41
2017-02-13T03:40:09.138Z,-3.37
2017-02-13T03:41:19.440Z,-3.54
2017-02-13T03:42:30.030Z,-3.48
2017-02-13T03:43:39.898Z,-3.4
2017-02-13T03:44:50.265Z,-3.43
2017-02-13T03:46:00.535Z,-3.4
2017-02-13T03:47:10.787Z,-3.38
2017-02-13T03:48:21.343Z,-3.48
2017-02-13T03:49:31.222Z,-3.52
2017-02-13T03:50:41.229Z,-3.52
2017-02-13T03:51:50.675Z,-3.64
2017-02-13T03:53:00.943Z,-3.52
2017-02-13T03:54:11.502Z,-3.56
2017-02-13T03:55:21.384Z,-3.48
2017-02-13T03:56:31.235Z,-3.52
2017-02-13T03:57:41.591Z,-3.55
2017-02-13T03:58:51.443Z,-3.51
2017-02-13T04:00:01.589Z,-3.52
2017-02-13T04:01:11.522Z,-3.37
2017-02-13T04:02:21.834Z,-3.45
2017-02-13T04:03:32.095Z,-3.41
2017-02-13T04:04:42.412Z,-3.48
2017-02-13T04:05:52.959Z,-3.37
2017-02-13T04:07:03.252Z,-3.34
2017-02-13T04:08:13.178Z,-3.34
2017-02-13T04:09:23.514Z,-3.28
2017-02-13T04:10:33.778Z,-3.23
2017-02-13T04:11:44.261Z,-3.23
2017-02-13T04:12:54.593Z,-3.28
2017-02-13T04:14:04.866Z,-3.2
2017-02-13T04:15:14.748Z,-3.34
2017-02-13T04:16:25.064Z,-3.3
2017-02-13T04:17:34.846Z,-3.35
2017-02-13T04:18:45.124Z,-3.4
2017-02-13T04:19:55.448Z,-3.35
2017-02-13T04:21:05.696Z,-3.31
2017-02-13T04:22:15.162Z,-3.37
2017-02-13T04:23:25.725Z,-3.45
2017-02-13T04:24:36.025Z,-3.46
2017-02-13T04:25:46.006Z,-3.56
2017-02-13T04:26:56.377Z,-3.55
2017-02-13T04:28:05.851Z,-3.66
2017-02-13T04:29:15.980Z,-3.66
2017-02-13T04:30:26.248Z,-3.61
2017-02-13T04:31:36.125Z,-3.64
2017-02-13T04:32:46.090Z,-3.58
2017-02-13T04:33:55.969Z,-3.51
2017-02-13T04:35:06.491Z,-3.46
2017-02-13T04:36:16.739Z,-3.43
2017-02-13T04:37:27.031Z,-3.55
2017-02-13T04:38:36.915Z,-3.46
2017-02-13T04:39:46.803Z,-3.48
2017-02-13T04:40:56.934Z,-3.41
2017-02-13T04:42:07.245Z,-3.56
2017-02-13T04:43:17.100Z,-3.45
2017-02-13T04:44:27.368Z,-3.48
2017-02-13T04:45:36.855Z,-3.49
2017-02-13T04:46:47.361Z,-3.55
2017-02-13T04:47:57.666Z,-3.55
2017-02-13T04:49:07.684Z,-3.45
2017-02-13T04:50:17.981Z,-3.41
2017-02-13T04:51:28.246Z,-3.35
2017-02-13T04:52:38.354Z,-3.34
2017-02-13T04:53:48.273Z,-3.3
2017-02-13T04:54:58.148Z,-3.35
2017-02-13T04:56:08.001Z,-3.23
2017-02-13T04:57:17.887Z,-3.38
2017-02-13T04:58:28.003Z,-3.33
2017-02-13T04:59:37.863Z,-3.4
2017-02-13T05:00:47.717Z,-3.37
2017-02-13T05:01:57.653Z,-3.35
2017-02-13T05:03:07.959Z,-3.27
2017-02-13T05:04:18.149Z,-3.26
2017-02-13T05:05:28.532Z,-3.38
2017-02-13T05:06:38.476Z,-3.45
2017-02-13T05:07:48.902Z,-3.46
2017-02-13T05:08:58.741Z,-3.41
2017-02-13T05:10:08.513Z,-3.48
2017-02-13T05:11:17.984Z,-3.48
2017-02-13T05:12:28.226Z,-3.58
2017-02-13T05:13:37.722Z,-3.45
2017-02-13T05:14:47.961Z,-3.49
2017-02-13T05:15:58.083Z,-3.55
2017-02-13T05:17:07.947Z,-3.41
2017-02-13T05:18:17.810Z,-3.48
2017-02-13T05:19:28.040Z,-3.46
2017-02-13T05:20:38.326Z,-3.4
2017-02-13T05:21:48.495Z,-3.49
2017-02-13T05:22:57.968Z,-3.45
2017-02-13T05:24:08.263Z,-3.4
2017-02-13T05:25:18.146Z,-3.35
2017-02-13T05:26:28.405Z,-3.34
2017-02-13T05:27:38.928Z,-3.3
2017-02-13T05:28:48.839Z,-3.28
2017-02-13T05:29:58.755Z,-3.23
2017-02-13T05:31:08.647Z,-3.22
2017-02-13T05:32:18.903Z,-3.34
2017-02-13T05:33:28.648Z,-3.4
2017-02-13T05:34:38.998Z,-3.22
2017-02-13T05:35:49.315Z,-3.23
2017-02-13T05:36:59.631Z,-3.16
2017-02-13T05:38:09.861Z,-3.3
2017-02-13T05:39:20.234Z,-3.22
2017-02-13T05:40:30.545Z,-3.19
2017-02-13T05:41:39.992Z,-3.17
2017-02-13T05:42:49.851Z,-3.22
2017-02-13T05:44:00.166Z,-3.23
2017-02-13T05:45:10.939Z,-3.4
2017-02-13T05:46:20.791Z,-3.22
2017-02-13T05:47:31.043Z,-3.31
2017-02-13T05:48:41.436Z,-3.3
2017-02-13T05:49:51.292Z,-3.37
2017-02-13T05:51:01.803Z,-3.34
2017-02-13T05:52:12.069Z,-3.33
2017-02-13T05:53:21.950Z,-3.41
2017-02-13T05:54:32.301Z,-3.33
2017-02-13T05:55:42.563Z,-3.46
2017-02-13T05:56:52.682Z,-3.41
2017-02-13T05:58:02.584Z,-3.48
2017-02-13T05:59:12.860Z,-3.46
2017-02-13T06:00:22.316Z,-3.48
2017-02-13T06:01:32.679Z,-3.41
2017-02-13T06:02:43.232Z,-3.43
2017-02-13T06:03:53.526Z,-3.41
2017-02-13T06:05:03.394Z,-3.55
2017-02-13T06:06:13.636Z,-3.38
2017-02-13T06:07:23.936Z,-3.4
2017-02-13T06:08:33.673Z,-3.37
2017-02-13T06:09:42.729Z,-3.37
2017-02-13T06:10:53.024Z,-3.38
2017-02-13T06:12:03.401Z,-3.34
2017-02-13T06:13:13.361Z,-3.41
2017-02-13T06:14:23.931Z,-3.37
2017-02-13T06:15:34.209Z,-3.54
2017-02-13T06:16:44.583Z,-3.43
2017-02-13T06:17:54.041Z,-3.55
2017-02-13T06:19:04.303Z,-3.46
2017-02-13T06:20:14.401Z,-3.45
2017-02-13T06:21:24.746Z,-3.52
2017-02-13T06:22:34.626Z,-3.56
2017-02-13T06:23:44.162Z,-3.48
2017-02-13T06:24:54.410Z,-3.55
2017-02-13T06:26:04.584Z,-3.51
2017-02-13T06:27:14.427Z,-3.46
2017-02-13T06:28:24.558Z,-3.43
2017-02-13T06:29:34.835Z,-3.45
2017-02-13T06:30:44.692Z,-3.38
2017-02-13T06:31:55.278Z,-3.4
2017-02-13T06:33:05.554Z,-3.48
2017-02-13T06:34:15.861Z,-3.48
2017-02-13T06:35:26.112Z,-3.49
2017-02-13T06:36:35.601Z,-3.45
2017-02-13T06:37:45.723Z,-3.46
2017-02-13T06:38:55.635Z,-3.52
2017-02-13T06:40:06.016Z,-3.61
2017-02-13T06:41:15.913Z,-3.66
2017-02-13T06:42:25.373Z,-3.74
2017-02-13T06:43:35.884Z,-3.67
2017-02-13T06:44:45.331Z,-3.7
2017-02-13T06:45:55.594Z,-3.7
2017-02-13T06:47:05.919Z,-3.61
2017-02-13T06:48:15.410Z,-3.67
2017-02-13T06:49:25.106Z,-3.69
2017-02-13T06:50:34.197Z,-3.61
2017-02-13T06:51:44.625Z,-3.73
2017-02-13T06:52:54.887Z,-3.69
2017-02-13T06:54:04.738Z,-3.81
2017-02-13T06:55:14.886Z,-3.73
2017-02-13T06:56:24.792Z,-3.79
2017-02-13T06:57:35.044Z,-3.85
2017-02-13T06:58:44.607Z,-3.9
2017-02-13T06:59:54.982Z,-3.82
2017-02-13T07:01:05.167Z,-3.85
2017-02-13T07:02:15.432Z,-3.87
2017-02-13T07:03:25.338Z,-3.85
2017-02-13T07:04:35.699Z,-3.72
2017-02-13T07:05:45.554Z,-3.84
2017-02-13T07:06:56.095Z,-3.79
2017-02-13T07:08:05.978Z,-3.77
2017-02-13T07:09:16.307Z,-3.7
2017-02-13T07:10:26.663Z,-3.73
2017-02-13T07:11:36.549Z,-3.54
2017-02-13T07:12:46.855Z,-3.17
2017-02-13T07:13:57.213Z,-2.89
2017-02-13T07:15:07.070Z,-2.79
2017-02-13T07:16:17.033Z,-2.46
2017-02-13T07:17:26.898Z,-2.25
2017-02-13T07:18:36.986Z,-2.07
2017-02-13T07:19:47.228Z,-1.82
2017-02-13T07:20:57.107Z,-1.68
2017-02-13T07:22:06.571Z,-1.46
2017-02-13T07:23:16.419Z,-1.29
2017-02-13T07:24:26.927Z,-1.1
2017-02-13T07:25:36.497Z,-0.91
2017-02-13T07:26:46.811Z,-0.87
2017-02-13T07:27:57.131Z,-0.63
2017-02-13T07:29:06.647Z,-0.49
2017-02-13T07:30:17.282Z,-0.35
2017-02-13T07:31:27.200Z,-0.13
2017-02-13T07:32:37.103Z,-0.02
2017-02-13T07:33:46.973Z,0.09
2017-02-13T07:34:56.876Z,0.22
2017-02-13T07:36:07.400Z,0.48
2017-02-13T07:37:16.864Z,0.61
2017-02-13T07:38:26.753Z,0.74
2017-02-13T07:39:36.713Z,0.96
2017-02-13T07:40:46.965Z,1.1
2017-02-13T07:41:57.463Z,1.32
2017-02-13T07:43:07.752Z,1.35
2017-02-13T07:44:17.612Z,1.29
2017-02-13T07:45:27.468Z,1.46
2017-02-13T07:46:37.744Z,1.43
2017-02-13T07:47:48.299Z,1.5
2017-02-13T07:48:57.857Z,1.38
2017-02-13T07:50:08.111Z,1.53
2017-02-13T07:51:17.635Z,1.58
2017-02-13T07:52:27.496Z,1.67
2017-02-13T07:53:38.006Z,1.54
2017-02-13T07:54:48.009Z,1.62
2017-02-13T07:55:58.297Z,1.73
2017-02-13T07:57:08.197Z,1.87
2017-02-13T07:58:18.106Z,2.05
2017-02-13T07:59:28.676Z,2.18
2017-02-13T08:00:38.536Z,2.27
2017-02-13T08:01:48.024Z,2.41
2017-02-13T08:02:58.340Z,2.45
2017-02-13T08:04:08.625Z,2.52
2017-02-13T08:05:19.851Z,2.63
2017-02-13T08:06:30.841Z,2.64
2017-02-13T08:07:41.640Z,2.71
2017-02-13T08:08:52.543Z,2.84
2017-02-13T08:10:03.083Z,2.88
2017-02-13T08:11:13.363Z,3.02
2017-02-13T08:12:24.462Z,3.1
2017-02-13T08:13:35.494Z,3.29
2017-02-13T08:14:46.414Z,3.54
2017-02-13T08:15:56.580Z,3.58
2017-02-13T08:17:07.715Z,3.65
2017-02-13T08:18:18.668Z,3.9
2017-02-13T08:19:29.798Z,4.04
2017-02-13T08:20:40.332Z,4.12
2017-02-13T08:21:51.289Z,4.28
2017-02-13T08:23:02.192Z,4.59
2017-02-13T08:24:13.157Z,4.67
2017-02-13T08:25:24.105Z,4.85
2017-02-13T08:26:34.680Z,5.07
2017-02-13T08:27:44.750Z,5.24
2017-02-13T08:28:56.534Z,5.43
2017-02-13T08:30:07.059Z,5.56
2017-02-13T08:31:18.039Z,5.77
2017-02-13T08:32:28.988Z,5.8
2017-02-13T08:33:39.906Z,5.96
2017-02-13T08:34:51.139Z,5.94
2017-02-13T08:36:01.335Z,6.08
2017-02-13T08:37:11.821Z,6.41
2017-02-13T08:38:21.919Z,6.46
2017-02-13T08:39:33.078Z,6.57
2017-02-13T08:40:43.945Z,6.75
2017-02-13T08:41:54.925Z,7.08
2017-02-13T08:43:05.852Z,7.22
2017-02-13T08:44:16.126Z,7.48
2017-02-13T08:45:26.830Z,7.39
2017-02-13T08:46:37.233Z,7.59
2017-02-13T08:47:47.781Z,7.44
2017-02-13T08:48:58.708Z,7.51
2017-02-13T08:50:08.887Z,7.72
2017-02-13T08:51:19.863Z,7.74
2017-02-13T08:53:02.854Z,7.74
2017-02-13T08:54:13.812Z,7.84
2017-02-13T08:55:23.949Z,7.98
2017-02-13T08:56:35.921Z,8.12
2017-02-13T08:57:46.868Z,8.24
2017-02-13T08:58:57.687Z,8.13
2017-02-13T09:00:08.627Z,8.3
2017-02-13T09:01:19.583Z,8.45
2017-02-13T09:02:30.532Z,8.4
2017-02-13T09:03:41.087Z,8.52
2017-02-13T09:04:53.283Z,8.71
2017-02-13T09:06:03.840Z,8.74
2017-02-13T09:07:14.397Z,8.93
2017-02-13T09:08:25.391Z,8.95
2017-02-13T09:09:36.393Z,9.01
2017-02-13T09:10:47.592Z,9.02
2017-02-13T09:11:58.545Z,8.97
2017-02-13T09:13:09.545Z,8.95
2017-02-13T09:14:20.142Z,8.95
2017-02-13T09:15:30.297Z,8.98
2017-02-13T09:16:41.072Z,8.87
2017-02-13T09:17:52.064Z,9.07
2017-02-13T09:19:02.287Z,9.19
2017-02-13T09:20:13.207Z,9.25
2017-02-13T09:21:24.154Z,9.48
2017-02-13T09:22:34.982Z,9.34
2017-02-13T09:23:45.654Z,9.17
2017-02-13T09:24:56.627Z,9.23
2017-02-13T09:26:06.719Z,9.04
2017-02-13T09:27:18.350Z,9.19
2017-02-13T09:28:28.848Z,9.23
2017-02-13T09:29:39.418Z,9.35
2017-02-13T09:30:50.411Z,9.34
2017-02-13T09:32:01.409Z,9.37
2017-02-13T09:33:12.047Z,9.52
2017-02-13T09:34:23.258Z,9.56
2017-02-13T09:35:33.395Z,9.7
2017-02-13T09:36:44.364Z,9.7
2017-02-13T09:37:55.495Z,9.52
2017-02-13T09:39:06.041Z,9.48
2017-02-13T09:40:17.303Z,9.37
2017-02-13T09:41:28.274Z,9.35
2017-02-13T09:42:38.421Z,9.09
2017-02-13T09:43:48.990Z,8.95
2017-02-13T09:44:59.733Z,8.86
2017-02-13T09:46:10.456Z,8.75
2017-02-13T09:47:21.000Z,8.87
2017-02-13T09:48:31.124Z,8.98
2017-02-13T09:49:42.162Z,8.95
2017-02-13T09:50:52.348Z,9.05
2017-02-13T09:52:02.797Z,9.33
2017-02-13T09:53:13.280Z,9.52
2017-02-13T09:54:25.248Z,9.71
2017-02-13T09:55:35.865Z,9.85
2017-02-13T09:56:46.463Z,9.84
2017-02-13T09:57:56.817Z,9.55
2017-02-13T09:59:08.726Z,9.25
2017-02-13T10:00:19.721Z,9.27
2017-02-13T10:01:30.355Z,9.17
2017-02-13T10:02:40.719Z,9.15
2017-02-13T10:03:51.274Z,9.09
2017-02-13T10:05:02.345Z,9.11
2017-02-13T10:06:13.328Z,9
2017-02-13T10:07:24.340Z,8.97
2017-02-13T10:08:35.426Z,8.8
2017-02-13T10:09:45.857Z,8.52
2017-02-13T10:10:55.805Z,8.46
2017-02-13T10:12:05.331Z,8.55
2017-02-13T10:13:15.628Z,8.87
2017-02-13T10:14:25.922Z,9.02
2017-02-13T10:15:36.467Z,9.12
2017-02-13T10:16:46.415Z,8.9
2017-02-13T10:17:55.948Z,8.66
2017-02-13T10:19:05.848Z,8.42
2017-02-13T10:20:15.759Z,8.13
2017-02-13T10:21:25.543Z,7.88
2017-02-13T10:22:35.854Z,7.76
2017-02-13T10:23:46.339Z,7.73
2017-02-13T10:24:56.306Z,7.74
2017-02-13T10:26:06.586Z,7.9
2017-02-13T10:27:16.892Z,8.16
2017-02-13T10:28:27.292Z,8.53
2017-02-13T10:29:37.649Z,8.93
2017-02-13T10:30:47.971Z,9.05
2017-02-13T10:31:58.254Z,9.25
2017-02-13T10:33:08.789Z,9.12
2017-02-13T10:34:19.147Z,9.15
2017-02-13T10:35:29.453Z,9.09
2017-02-13T10:36:39.775Z,9.3
2017-02-13T10:37:49.648Z,9.37
2017-02-13T10:39:00.179Z,9.45
2017-02-13T10:40:10.154Z,9.41
2017-02-13T10:41:19.626Z,9.5
2017-02-13T10:42:30.187Z,9.66
2017-02-13T10:43:40.673Z,9.83
2017-02-13T10:44:51.258Z,9.88
2017-02-13T10:46:01.583Z,9.99
2017-02-13T10:47:11.881Z,9.92
2017-02-13T10:48:21.346Z,9.85
2017-02-13T10:49:31.331Z,9.85
2017-02-13T10:50:41.525Z,10.07
2017-02-13T10:51:51.821Z,10.22
2017-02-13T10:53:01.402Z,9.99
2017-02-13T10:54:11.280Z,9.96
2017-02-13T10:55:21.167Z,9.92
2017-02-13T10:56:30.903Z,10.03
2017-02-13T10:57:41.219Z,10.13
2017-02-13T10:58:51.199Z,10.32
2017-02-13T11:00:01.122Z,10.33
2017-02-13T11:01:11.447Z,10.51
2017-02-13T11:02:21.659Z,10.57
2017-02-13T11:03:31.971Z,10.67
2017-02-13T11:04:42.310Z,10.66
2017-02-13T11:05:52.613Z,10.7
2017-02-13T11:07:02.224Z,10.84
2017-02-13T11:08:11.653Z,10.69
2017-02-13T11:09:21.574Z,10.72
2017-02-13T11:10:31.911Z,10.9
2017-02-13T11:11:41.792Z,10.58
2017-02-13T11:12:52.170Z,10.24
2017-02-13T11:14:02.296Z,10.36
2017-02-13T11:15:12.376Z,10.27
2017-02-13T11:16:22.692Z,10.22
2017-02-13T11:17:32.965Z,10.37
2017-02-13T11:18:43.251Z,10.47
2017-02-13T11:19:53.776Z,10.72
2017-02-13T11:21:04.064Z,10.7
2017-02-13T11:22:14.340Z,10.72
2017-02-13T11:23:24.637Z,10.7
2017-02-13T11:24:34.922Z,10.61
2017-02-13T11:25:45.503Z,10.48
2017-02-13T11:26:55.808Z,10.34
2017-02-13T11:28:05.326Z,10.3
2017-02-13T11:29:15.694Z,10.17
2017-02-13T11:30:25.571Z,10.26
2017-02-13T11:31:35.717Z,10.22
2017-02-13T11:32:45.211Z,10.21
2017-02-13T11:33:55.074Z,10.07
2017-02-13T11:35:04.536Z,9.88
2017-02-13T11:36:14.552Z,9.81
2017-02-13T11:37:25.105Z,9.88
2017-02-13T11:38:35.407Z,9.96
2017-02-13T11:39:45.924Z,10.27
2017-02-13T11:40:55.804Z,10.21
2017-02-13T11:42:06.103Z,10.42
2017-02-13T11:43:16.271Z,10.57
2017-02-13T11:44:26.163Z,10.66
2017-02-13T11:45:36.455Z,10.57
2017-02-13T11:46:46.760Z,10.57
2017-02-13T11:47:56.742Z,10.58
2017-02-13T11:49:06.912Z,10.76
2017-02-13T11:50:17.232Z,10.84
2017-02-13T11:51:27.110Z,10.73
2017-02-13T11:52:37.484Z,10.69
2017-02-13T11:53:47.411Z,10.57
2017-02-13T11:54:58.009Z,10.52
2017-02-13T11:56:08.362Z,10.5
2017-02-13T11:57:18.238Z,10.55
2017-02-13T11:58:28.584Z,10.39
2017-02-13T11:59:38.855Z,10.3
2017-02-13T12:00:48.588Z,10.47
2017-02-13T12:01:58.915Z,10.66
2017-02-13T12:03:09.358Z,10.57
2017-02-13T12:04:19.767Z,10.57
2017-02-13T12:05:29.749Z,10.61
2017-02-13T12:06:40.338Z,10.55
2017-02-13T12:07:50.246Z,10.63
2017-02-13T12:08:59.760Z,10.55
2017-02-13T12:10:09.479Z,10.51
2017-02-13T12:11:19.799Z,10.5
2017-02-13T12:12:29.939Z,10.58
2017-02-13T12:13:40.366Z,10.7
2017-02-13T12:14:50.681Z,10.8
2017-02-13T12:16:00.150Z,10.7
2017-02-13T12:17:09.801Z,10.69
2017-02-13T12:18:19.994Z,10.8
2017-02-13T12:19:30.254Z,10.87
2017-02-13T12:20:40.557Z,10.88
2017-02-13T12:21:50.441Z,11.1
2017-02-13T12:23:00.309Z,11.13
2017-02-13T12:24:10.479Z,11.08
2017-02-13T12:25:20.400Z,11.2
2017-02-13T12:26:30.671Z,11.34
2017-02-13T12:27:40.657Z,11.28
2017-02-13T12:28:50.995Z,11.43
2017-02-13T12:30:01.531Z,11.46
2017-02-13T12:31:11.407Z,11.57
2017-02-13T12:32:21.696Z,11.59
2017-02-13T12:33:31.599Z,11.45
2017-02-13T12:34:41.885Z,11.5
2017-02-13T12:35:52.419Z,11.39
2017-02-13T12:37:02.794Z,11.46
2017-02-13T12:38:13.147Z,11.46
2017-02-13T12:39:23.545Z,11.48
2017-02-13T12:40:33.035Z,11.45
2017-02-13T12:41:42.528Z,11.46
2017-02-13T12:42:52.822Z,11.48
2017-02-13T19:57:56.487Z,-0.16
2017-02-13T19:59:06.801Z,-0.15
2017-02-13T20:00:17.146Z,-0.16
2017-02-13T20:01:27.590Z,-0.19
2017-02-13T20:02:37.463Z,-0.23
2017-02-13T20:03:48.068Z,-0.07
2017-02-13T20:04:58.377Z,-0.1
2017-02-13T20:06:07.847Z,-0.17
2017-02-13T20:07:17.722Z,-0.13
2017-02-13T20:08:27.995Z,-0.2
2017-02-13T20:09:38.148Z,-0.23
2017-02-13T20:10:48.416Z,-0.27
2017-02-13T20:11:58.298Z,-0.28
2017-02-13T20:13:08.623Z,-0.3
2017-02-13T20:14:31.699Z,-0.2
2017-02-13T20:15:42.278Z,-0.31
2017-02-13T20:16:52.183Z,-0.25
2017-02-13T20:18:02.477Z,-0.2
2017-02-13T20:19:12.834Z,-0.23
2017-02-13T20:20:22.141Z,-0.17
2017-02-13T20:21:32.147Z,-0.2
2017-02-13T20:22:42.443Z,-0.22
2017-02-13T20:23:52.338Z,-0.15
2017-02-13T20:25:02.671Z,-0.16
2017-02-13T20:26:13.033Z,-0.17
2017-02-13T20:27:23.011Z,-0.27
2017-02-13T20:28:33.308Z,-0.25
2017-02-13T20:29:43.206Z,-0.22
2017-02-13T20:30:53.635Z,-0.23
2017-02-13T20:32:03.892Z,-0.27
2017-02-13T20:33:14.424Z,-0.28
2017-02-13T20:34:24.360Z,-0.38
2017-02-13T20:35:33.861Z,-0.4
2017-02-13T20:36:43.859Z,-0.51
2017-02-13T20:37:53.992Z,-0.41
2017-02-13T20:39:04.306Z,-0.4
2017-02-13T20:40:14.729Z,-0.28
2017-02-13T20:41:25.131Z,-0.37
2017-02-13T20:42:35.439Z,-0.41
2017-02-13T20:43:45.647Z,-0.48
2017-02-13T20:44:56.034Z,-0.43
2017-02-13T20:46:06.418Z,-0.43
2017-02-13T20:47:16.728Z,-0.35
2017-02-13T20:48:27.068Z,-0.33
2017-02-13T20:49:37.200Z,-0.27
2017-02-13T20:50:47.502Z,-0.34
2017-02-13T20:51:57.801Z,-0.27
2017-02-13T20:53:07.757Z,-0.35
2017-02-13T20:54:18.164Z,-0.35
2017-02-13T20:55:28.348Z,-0.34
2017-02-13T20:56:38.739Z,-0.33
2017-02-13T20:57:49.060Z,-0.38
2017-02-13T20:58:59.532Z,-0.43
2017-02-13T21:00:09.416Z,-0.46
2017-02-13T21:01:19.554Z,-0.41
2017-02-13T21:02:29.434Z,-0.48
2017-02-13T21:03:38.936Z,-0.46
2017-02-13T21:04:49.287Z,-0.49
2017-02-13T21:05:59.593Z,-0.46
2017-02-13T21:07:10.146Z,-0.49
2017-02-13T21:08:20.478Z,-0.53
2017-02-13T21:09:30.768Z,-0.63
2017-02-13T21:10:40.304Z,-0.63
2017-02-13T21:11:50.223Z,-0.64
2017-02-13T21:13:00.752Z,-0.66
2017-02-13T21:14:11.049Z,-0.69
2017-02-13T21:15:21.376Z,-0.73
2017-02-13T21:16:30.844Z,-0.78
2017-02-13T21:17:41.175Z,-0.77
2017-02-13T21:18:51.755Z,-0.78
2017-02-13T21:20:01.255Z,-0.76
2017-02-13T21:21:10.841Z,-0.85
2017-02-13T21:22:21.159Z,-0.85
2017-02-13T21:23:31.570Z,-0.88
2017-02-13T21:24:42.095Z,-0.96
2017-02-13T21:25:52.381Z,-0.91
2017-02-13T21:27:02.294Z,-0.88
2017-02-13T21:28:12.578Z,-0.92
2017-02-13T21:29:22.524Z,-0.98
2017-02-13T21:30:33.063Z,-0.91
2017-02-13T21:31:43.383Z,-1.02
2017-02-13T21:32:53.678Z,-0.95
2017-02-13T21:34:03.989Z,-0.91
2017-02-13T21:35:13.454Z,-0.91
2017-02-13T21:36:23.177Z,-0.95
2017-02-13T21:37:33.477Z,-0.91
2017-02-13T21:38:43.747Z,-0.89
2017-02-13T21:39:53.624Z,-0.85
2017-02-13T21:41:03.509Z,-0.98
2017-02-13T21:42:13.683Z,-1.09
2017-02-13T21:43:24.006Z,-1.1
2017-02-13T21:44:33.500Z,-1.12
2017-02-13T21:45:43.437Z,-1.05
2017-02-13T21:46:53.290Z,-0.95
2017-02-13T21:48:03.418Z,-1
2017-02-13T21:49:13.790Z,-0.92
2017-02-13T21:50:23.237Z,-0.92
2017-02-13T21:51:33.219Z,-1.02
2017-02-13T21:52:43.527Z,-1
2017-02-13T21:53:53.633Z,-0.95
2017-02-13T21:55:03.505Z,-1.03
2017-02-13T21:56:13.359Z,-0.98
2017-02-13T21:57:23.613Z,-0.89
2017-02-13T21:58:33.514Z,-0.88
2017-02-13T21:59:44.079Z,-0.88
2017-02-13T22:00:54.446Z,-1.02
2017-02-13T22:02:04.312Z,-0.87
2017-02-13T22:03:14.673Z,-0.96
2017-02-13T22:04:25.052Z,-1
2017-02-13T22:05:35.224Z,-0.88
2017-02-13T22:06:45.101Z,-1
2017-02-13T22:07:55.374Z,-1
2017-02-13T22:09:05.356Z,-1.12
2017-02-13T22:10:15.672Z,-1.07
2017-02-13T22:11:26.234Z,-1.1
2017-02-13T22:12:36.516Z,-1.07
2017-02-13T22:13:46.412Z,-1.09
2017-02-13T22:14:56.732Z,-1.06
2017-02-13T22:16:06.612Z,-1.07
2017-02-13T22:17:16.791Z,-0.96
2017-02-13T22:18:26.791Z,-1
2017-02-13T22:19:37.086Z,-0.96
2017-02-13T22:20:47.463Z,-0.96
2017-02-13T22:21:57.778Z,-0.95
2017-02-13T22:23:07.722Z,-1.05
2017-02-13T22:24:18.024Z,-1.09
2017-02-13T22:25:28.374Z,-1.05
2017-02-13T22:26:38.227Z,-1.06
2017-02-13T22:27:48.163Z,-0.96
2017-02-13T22:28:58.679Z,-0.96